Time;durP1;ratioP1;P1;durP2;ratioP2;P2;SDS_P1;SDS_P2;PMS_P1;PMS_P2;Temp;Humidity;BMP_temperature;BMP_pressure;BME280_temperature;BME280_humidity;BME280_pressure;Samples;Min_cycle;Max_cycle;Signal;HPM_P1;HPM_P2
2019/04/11 00:01:07;;;;;;;6.5;5.9;;;;;;;22.64;30.99609;1001.224;;;;
2019/04/11 00:03:25;;;;;;;6.4;5.8;;;;;;;22.64;30.96094;1001.257;;;;
2019/04/11 00:05:54;;;;;;;6.1;5.6;;;;;;;22.63;30.92578;1001.198;;;;
2019/04/11 00:08:25;;;;;;;6.6;6;;;;;;;22.64;30.86621;1001.27;;;;
2019/04/11 00:10:54;;;;;;;6.3;5.7;;;;;;;22.63;30.83105;1001.266;;;;
2019/04/11 00:13:26;;;;;;;6.3;5.7;;;;;;;22.65;30.77246;1001.318;;;;
2019/04/11 00:15:58;;;;;;;6.8;6.1;;;;;;;22.64;30.73633;1001.315;;;;
2019/04/11 00:18:30;;;;;;;6.1;5.6;;;;;;;22.65;30.7373;1001.328;;;;
2019/04/11 00:21:00;;;;;;;6.3;5.7;;;;;;;22.64;30.67871;1001.351;;;;
2019/04/11 00:23:32;;;;;;;6.1;5.5;;;;;;;22.66;30.62012;1001.426;;;;
2019/04/11 00:26:03;;;;;;;6.5;5.4;;;;;;;22.66;30.6084;1001.43;;;;
2019/04/11 00:28:35;;;;;;;6.1;5.5;;;;;;;22.66;30.56152;1001.452;;;;
2019/04/11 00:31:04;;;;;;;6.2;5.6;;;;;;;22.68;30.48047;1001.429;;;;
2019/04/11 00:33:36;;;;;;;6.1;5.5;;;;;;;22.68;30.46777;1001.472;;;;
2019/04/11 00:36:07;;;;;;;5.8;5.3;;;;;;;22.67;30.4209;1001.483;;;;
2019/04/11 00:38:44;;;;;;;6.2;5.6;;;;;;;22.67;30.40918;1001.524;;;;
2019/04/11 00:41:16;;;;;;;5.9;5.4;;;;;;;22.67;30.36133;1001.477;;;;
2019/04/11 00:43:46;;;;;;;5.8;5.2;;;;;;;22.66;30.36035;1001.43;;;;
2019/04/11 00:46:15;;;;;;;6.2;5.6;;;;;;;22.66;30.34863;1001.457;;;;
2019/04/11 00:48:47;;;;;;;6.2;5.6;;;;;;;22.64;30.28906;1001.405;;;;
2019/04/11 00:51:17;;;;;;;6.2;5.6;;;;;;;22.65;30.24219;1001.363;;;;
2019/04/11 00:53:50;;;;;;;5.9;5.4;;;;;;;22.64;30.28906;1001.361;;;;
2019/04/11 00:56:20;;;;;;;5.4;4.9;;;;;;;22.62;30.25195;1001.305;;;;
2019/04/11 00:58:55;;;;;;;6.1;5.3;;;;;;;22.62;30.25195;1001.373;;;;
2019/04/11 01:01:25;;;;;;;5.8;5;;;;;;;22.62;30.20508;1001.355;;;;
2019/04/11 01:03:55;;;;;;;5.8;5.3;;;;;;;22.61;30.22754;1001.359;;;;
2019/04/11 01:06:26;;;;;;;6.1;5.2;;;;;;;22.59;30.17871;1001.352;;;;
2019/04/11 01:08:56;;;;;;;5.4;4.9;;;;;;;22.59;30.16699;1001.393;;;;
2019/04/11 01:11:33;;;;;;;5.7;5.1;;;;;;;22.59;30.15527;1001.381;;;;
2019/04/11 01:14:09;;;;;;;5.4;4.9;;;;;;;22.58;30.19043;1001.428;;;;
2019/04/11 01:16:54;;;;;;;5.6;5.1;;;;;;;22.58;30.10742;1001.418;;;;
2019/04/11 01:19:10;;;;;;;5.8;4.9;;;;;;;22.57;30.17773;1001.449;;;;
2019/04/11 01:21:42;;;;;;;5.5;5;;;;;;;22.57;30.17773;1001.466;;;;
2019/04/11 01:24:15;;;;;;;5.3;4.8;;;;;;;22.55;30.09375;1001.479;;;;
2019/04/11 01:26:45;;;;;;;5.5;5;;;;;;;22.55;30.01172;1001.534;;;;
2019/04/11 01:29:15;;;;;;;5.6;5.1;;;;;;;22.56;30;1001.538;;;;
2019/04/11 01:31:49;;;;;;;5.5;5;;;;;;;22.56;29.97656;1001.579;;;;
2019/04/11 01:34:21;;;;;;;5.7;4.8;;;;;;;22.55;29.90527;1001.63;;;;
2019/04/11 01:36:49;;;;;;;5.2;4.7;;;;;;;22.54;29.88086;1001.654;;;;
2019/04/11 01:40:02;;;;;;;5.2;4.7;;;;;;;22.54;29.86914;1001.647;;;;
2019/04/11 01:41:50;;;;;;;5.3;4.8;;;;;;;22.54;29.77441;1001.629;;;;
2019/04/11 01:44:23;;;;;;;5.4;4.9;;;;;;;22.54;29.71582;1001.627;;;;
2019/04/11 01:46:51;;;;;;;5.1;4.6;;;;;;;22.56;29.62207;1001.638;;;;
2019/04/11 01:49:19;;;;;;;5.3;4.8;;;;;;;22.56;29.59961;1001.591;;;;
2019/04/11 01:51:45;;;;;;;5.3;4.8;;;;;;;22.57;29.54004;1001.708;;;;
2019/04/11 01:54:16;;;;;;;4.9;4.4;;;;;;;22.58;29.50586;1001.67;;;;
2019/04/11 01:56:47;;;;;;;4.9;4.5;;;;;;;22.59;29.42383;1001.745;;;;
2019/04/11 01:59:15;;;;;;;5.2;4.7;;;;;;;22.59;29.40039;1001.672;;;;
2019/04/11 02:02:00;;;;;;;4.9;4.4;;;;;;;22.6;29.35352;1001.753;;;;
2019/04/11 02:04:26;;;;;;;4.8;4.4;;;;;;;22.59;29.3418;1001.731;;;;
2019/04/11 02:06:44;;;;;;;5.3;4.8;;;;;;;22.59;29.33008;1001.718;;;;
2019/04/11 02:09:14;;;;;;;4.8;4.4;;;;;;;22.59;29.30566;1001.7;;;;
2019/04/11 02:11:44;;;;;;;4.9;4.4;;;;;;;22.6;29.25879;1001.753;;;;
2019/04/11 02:14:14;;;;;;;5.1;4.6;;;;;;;22.59;29.23535;1001.776;;;;
2019/04/11 02:16:45;;;;;;;4.8;4.4;;;;;;;22.57;29.23438;1001.758;;;;
2019/04/11 02:19:15;;;;;;;4.9;4.4;;;;;;;22.57;29.1748;1001.777;;;;
2019/04/11 02:21:49;;;;;;;5.7;4.6;;;;;;;22.57;29.1748;1001.795;;;;
2019/04/11 02:27:36;;;;;;;5.4;4.3;;;;;;;22.57;29.08008;1001.804;;;;
2019/04/11 02:29:25;;;;;;;5.3;4.8;;;;;;;22.57;29.05664;1001.763;;;;
2019/04/11 02:31:58;;;;;;;5;4.5;;;;;;;22.55;29.02051;1001.835;;;;
2019/04/11 02:34:32;;;;;;;5.1;4.6;;;;;;;22.55;29.03223;1001.831;;;;
2019/04/11 02:37:03;;;;;;;4.9;4.5;;;;;;;22.54;29.07813;1001.869;;;;
2019/04/11 02:39:32;;;;;;;5.1;4.6;;;;;;;22.54;29.07813;1001.807;;;;
2019/04/11 02:42:05;;;;;;;5.2;4.2;;;;;;;22.53;29.10156;1001.839;;;;
2019/04/11 02:44:36;;;;;;;4.7;4.3;;;;;;;22.53;29.10156;1001.955;;;;
2019/04/11 02:47:09;;;;;;;4.9;4.5;;;;;;;22.54;29.08984;1001.979;;;;
2019/04/11 02:49:34;;;;;;;4.8;4.4;;;;;;;22.54;29.08984;1001.988;;;;
2019/04/11 02:52:03;;;;;;;4.7;3.9;;;;;;;22.53;29.10156;1001.986;;;;
2019/04/11 02:54:29;;;;;;;4.8;4.3;;;;;;;22.54;29.08984;1002.043;;;;
2019/04/11 02:56:58;;;;;;;4.8;4.4;;;;;;;22.54;29.10156;1002.066;;;;
2019/04/11 02:59:28;;;;;;;4.9;4.5;;;;;;;22.55;29.09082;1002.082;;;;
2019/04/11 03:02:00;;;;;;;4.5;4.1;;;;;;;22.53;29.10156;1002.117;;;;
2019/04/11 03:04:29;;;;;;;5.2;4.7;;;;;;;22.53;29.08984;1002.085;;;;
2019/04/11 03:06:59;;;;;;;5.2;4.7;;;;;;;22.53;29.11328;1002.109;;;;
2019/04/11 03:09:30;;;;;;;5.2;4.7;;;;;;;22.53;29.08984;1002.082;;;;
2019/04/11 03:12:00;;;;;;;5.3;4.8;;;;;;;22.53;29.07813;1002.123;;;;
2019/04/11 03:14:32;;;;;;;4.9;4.5;;;;;;;22.51;29.04102;1002.112;;;;
2019/04/11 03:17:02;;;;;;;5.2;4.7;;;;;;;22.51;29.07617;1002.117;;;;
2019/04/11 03:19:31;;;;;;;4.8;4.3;;;;;;;22.5;29.22852;1002.06;;;;
2019/04/11 03:22:02;;;;;;;5.1;4.6;;;;;;;22.5;29.27637;1002.019;;;;
2019/04/11 03:24:34;;;;;;;4.8;4.4;;;;;;;22.49;29.5;1002.126;;;;
2019/04/11 03:27:04;;;;;;;5.2;4.6;;;;;;;22.48;29.55859;1002.128;;;;
2019/04/11 03:29:34;;;;;;;4.7;4.2;;;;;;;22.47;29.76953;1002.104;;;;
2019/04/11 03:32:07;;;;;;;5.4;4.3;;;;;;;22.47;29.81641;1002.141;;;;
2019/04/11 03:34:36;;;;;;;4.5;4.1;;;;;;;22.47;29.8877;1002.172;;;;
2019/04/11 03:37:08;;;;;;;4.7;4.3;;;;;;;22.47;29.94629;1002.254;;;;
2019/04/11 03:39:36;;;;;;;5.4;4.3;;;;;;;22.47;30.0293;1002.199;;;;
2019/04/11 03:42:08;;;;;;;4.9;4.4;;;;;;;22.46;30.09961;1002.142;;;;
2019/04/11 03:44:39;;;;;;;4.9;4.4;;;;;;;22.46;30.1709;1002.223;;;;
2019/04/11 03:47:10;;;;;;;5.6;3.9;;;;;;;22.47;30.21777;1002.217;;;;
2019/04/11 03:49:41;;;;;;;4.8;4.3;;;;;;;22.46;30.3125;1002.26;;;;
2019/04/11 03:52:11;;;;;;;5.4;4.6;;;;;;;22.46;30.40625;1002.277;;;;
2019/04/11 03:54:42;;;;;;;5;4.5;;;;;;;22.49;31.11523;1002.318;;;;
2019/04/11 03:57:13;;;;;;;4.9;4.4;;;;;;;22.5;30.80957;1002.344;;;;
2019/04/11 03:59:42;;;;;;;4.9;4.4;;;;;;;22.48;30.83203;1002.311;;;;
2019/04/11 04:02:38;;;;;;;5;4.5;;;;;;;22.48;30.90234;1002.38;;;;
2019/04/11 04:05:10;;;;;;;5;4.1;;;;;;;22.47;31.0791;1002.348;;;;
2019/04/11 04:07:41;;;;;;;4.7;4.3;;;;;;;22.48;31.13867;1002.407;;;;
2019/04/11 04:10:13;;;;;;;4.9;4.3;;;;;;;22.47;31.24414;1002.471;;;;
2019/04/11 04:12:43;;;;;;;4.9;4.4;;;;;;;22.47;31.38574;1002.481;;;;
2019/04/11 04:15:29;;;;;;;5.5;4.4;;;;;;;22.46;31.38477;1002.502;;;;
2019/04/11 04:17:53;;;;;;;5.2;4.5;;;;;;;22.47;31.52734;1002.487;;;;
2019/04/11 04:20:53;;;;;;;5.2;4.7;;;;;;;22.47;31.59766;1002.477;;;;
2019/04/11 04:23:16;;;;;;;4.6;4.1;;;;;;;22.46;31.63281;1002.496;;;;
2019/04/11 04:25:03;;;;;;;5.9;5.1;;;;;;;22.46;31.75;1002.516;;;;
2019/04/11 04:27:32;;;;;;;6.1;4.8;;;;;;;22.45;31.78516;1002.625;;;;
2019/04/11 04:30:03;;;;;;;6.1;4.2;;;;;;;22.46;31.82227;1002.647;;;;
2019/04/11 04:32:35;;;;;;;5.1;4.6;;;;;;;22.47;31.8457;1002.637;;;;
2019/04/11 04:35:04;;;;;;;5.2;4.4;;;;;;;22.46;31.9043;1002.652;;;;
2019/04/11 04:37:35;;;;;;;5.5;4.4;;;;;;;22.46;32.01074;1002.688;;;;
2019/04/11 04:40:05;;;;;;;5.5;4.9;;;;;;;22.46;32.01074;1002.752;;;;
2019/04/11 04:42:37;;;;;;;5.4;4.5;;;;;;;22.46;32.02246;1002.647;;;;
2019/04/11 04:45:08;;;;;;;6.6;4.3;;;;;;;22.46;32.05762;1002.697;;;;
2019/04/11 04:47:38;;;;;;;5.9;4.9;;;;;;;22.47;32.03418;1002.674;;;;
2019/04/11 04:50:08;;;;;;;5.7;4.7;;;;;;;22.47;32.02344;1002.731;;;;
2019/04/11 04:52:40;;;;;;;6.1;4.9;;;;;;;22.49;31.97656;1002.779;;;;
2019/04/11 04:55:09;;;;;;;6.4;4.8;;;;;;;22.52;31.89551;1002.8;;;;
2019/04/11 04:57:40;;;;;;;6;4.5;;;;;;;22.53;31.87402;1002.875;;;;
2019/04/11 05:00:11;;;;;;;5.1;4.3;;;;;;;22.52;31.83691;1002.841;;;;
2019/04/11 05:02:42;;;;;;;4.7;4.3;;;;;;;22.53;31.80273;1002.912;;;;
2019/04/11 05:05:12;;;;;;;5.8;4.4;;;;;;;22.54;31.74414;1002.922;;;;
2019/04/11 05:07:44;;;;;;;5.3;4.4;;;;;;;22.55;31.7334;1002.911;;;;
2019/04/11 05:10:13;;;;;;;5.5;4.8;;;;;;;22.55;31.68652;1002.956;;;;
2019/04/11 05:12:47;;;;;;;4.8;4.3;;;;;;;22.56;31.65234;1002.941;;;;
2019/04/11 05:15:17;;;;;;;5.7;4.8;;;;;;;22.58;31.61719;1002.965;;;;
2019/04/11 05:17:47;;;;;;;5.1;4.5;;;;;;;22.6;31.57227;1003.06;;;;
2019/04/11 05:20:19;;;;;;;6.5;4.6;;;;;;;22.6;31.57227;1003.119;;;;
2019/04/11 05:22:47;;;;;;;7.5;4.5;;;;;;;22.63;31.50293;1003.114;;;;
2019/04/11 05:25:17;;;;;;;7.3;4.9;;;;;;;22.65;31.45801;1003.131;;;;
2019/04/11 05:27:49;;;;;;;5.2;4.6;;;;;;;22.67;31.36426;1003.169;;;;
2019/04/11 05:30:20;;;;;;;4.9;4.4;;;;;;;22.67;31.29395;1003.095;;;;
2019/04/11 05:32:49;;;;;;;4.9;4.4;;;;;;;22.7;31.16602;1003.185;;;;
2019/04/11 05:35:20;;;;;;;5.6;4.6;;;;;;;22.71;31.20215;1003.197;;;;
2019/04/11 05:37:51;;;;;;;5.3;4.6;;;;;;;22.7;31.13086;1003.212;;;;
2019/04/11 05:40:21;;;;;;;4.8;4.3;;;;;;;22.7;31.10742;1003.198;;;;
2019/04/11 05:42:51;;;;;;;4.9;4.4;;;;;;;22.74;30.97949;1003.237;;;;
2019/04/11 05:45:22;;;;;;;4.8;4.3;;;;;;;22.75;30.94531;1003.257;;;;
2019/04/11 05:47:53;;;;;;;5.7;4.8;;;;;;;22.74;30.95605;1003.319;;;;
2019/04/11 05:50:44;;;;;;;6.1;4.6;;;;;;;22.75;30.90918;1003.339;;;;
2019/04/11 05:52:48;;;;;;;5;4.4;;;;;;;22.78;30.85254;1003.333;;;;
2019/04/11 05:55:19;;;;;;;5.3;4.5;;;;;;;22.82;30.74902;1003.343;;;;
2019/04/11 05:57:51;;;;;;;4.9;4.4;;;;;;;22.88;30.68262;1003.352;;;;
2019/04/11 06:00:38;;;;;;;4.8;4.3;;;;;;;22.98;30.44141;1003.373;;;;
2019/04/11 06:02:59;;;;;;;4.7;4.2;;;;;;;23.06;30.31738;1003.406;;;;
2019/04/11 06:05:49;;;;;;;5.1;4.5;;;;;;;23.15;30.08594;1003.421;;;;
2019/04/11 06:08:01;;;;;;;6;4.8;;;;;;;23.23;29.86816;1003.494;;;;
2019/04/11 06:10:30;;;;;;;5.2;4.5;;;;;;;23.28;29.75293;1003.484;;;;
2019/04/11 06:15:27;;;;;;;5;4.5;;;;;;;23.38;29.55859;1003.522;;;;
2019/04/11 06:17:53;;;;;;;5.1;4.3;;;;;;;23.46;29.38672;1003.515;;;;
2019/04/11 06:21:28;;;;;;;5.3;4.4;;;;;;;23.51;29.27148;1003.568;;;;
2019/04/11 06:23:01;;;;;;;5.3;4.4;;;;;;;23.57;29.0625;1003.51;;;;
2019/04/11 06:28:40;;;;;;;6.1;4.7;;;;;;;23.66;28.35938;1003.495;;;;
2019/04/11 06:36:40;;;;;;;5.2;4.7;;;;;;;23.86;27.63867;1003.589;;;;
2019/04/11 06:38:20;;;;;;;5.7;4.8;;;;;;;23.91;27.45215;1003.676;;;;
2019/04/11 06:40:42;;;;;;;5.6;4.8;;;;;;;23.96;27.07715;1003.614;;;;
2019/04/11 06:43:19;;;;;;;5.1;4.6;;;;;;;24;26.97266;1003.641;;;;
2019/04/11 06:48:15;;;;;;;5.4;4.7;;;;;;;24.1;26.52832;1003.634;;;;
2019/04/11 06:50:48;;;;;;;5.3;4.8;;;;;;;24.14;26.30664;1003.62;;;;
2019/04/11 06:53:18;;;;;;;5.3;4.8;;;;;;;24.19;26.17871;1003.688;;;;
2019/04/11 06:58:25;;;;;;;5.8;5;;;;;;;24.29;25.87695;1003.608;;;;
2019/04/11 07:00:54;;;;;;;6.8;5;;;;;;;24.32;25.6543;1003.668;;;;
2019/04/11 07:03:25;;;;;;;5.4;4.9;;;;;;;24.37;25.50293;1003.708;;;;
2019/04/11 07:05:50;;;;;;;5.2;4.7;;;;;;;24.42;25.2334;1003.706;;;;
2019/04/11 07:08:23;;;;;;;6.2;4.7;;;;;;;24.48;25.2002;1003.685;;;;
2019/04/11 07:10:56;;;;;;;5.8;4.8;;;;;;;24.52;25.16797;1003.662;;;;
2019/04/11 07:13:33;;;;;;;7.9;5.2;;;;;;;24.6;25.36133;1003.701;;;;
2019/04/11 07:15:53;;;;;;;6.8;4.8;;;;;;;24.68;25.50781;1003.716;;;;
2019/04/11 07:18:39;;;;;;;5.4;4.6;;;;;;;24.79;25.14746;1003.672;;;;
2019/04/11 07:21:12;;;;;;;7.3;5.2;;;;;;;24.87;24.72461;1003.666;;;;
2019/04/11 07:26:02;;;;;;;5.1;4.6;;;;;;;25.04;24.63867;1003.693;;;;
2019/04/11 07:28:36;;;;;;;7.2;4.7;;;;;;;25.1;24.6543;1003.655;;;;
2019/04/11 07:38:43;;;;;;;5.5;4.7;;;;;;;26.26;23.21973;1003.602;;;;
2019/04/11 07:41:22;;;;;;;6.3;4.7;;;;;;;26.85;22.46387;1003.693;;;;
2019/04/11 07:43:39;;;;;;;5.6;4.9;;;;;;;27.44;21.62207;1003.675;;;;
2019/04/11 07:48:44;;;;;;;7.1;4.8;;;;;;;28.13;20.78418;1003.695;;;;
2019/04/11 07:51:25;;;;;;;6.1;4.5;;;;;;;28.35;20.28027;1003.758;;;;
2019/04/11 07:53:34;;;;;;;4.9;4.4;;;;;;;28.61;20.11328;1003.734;;;;
2019/04/11 07:56:10;;;;;;;5;4.2;;;;;;;28.89;19.74219;1003.747;;;;
2019/04/11 07:58:44;;;;;;;6.2;4.1;;;;;;;29.12;19.53613;1003.795;;;;
2019/04/11 08:01:42;;;;;;;7.7;4.3;;;;;;;29.33;18.95898;1003.726;;;;
2019/04/11 08:06:34;;;;;;;6.2;4.6;;;;;;;29.8;18.47559;1003.785;;;;
2019/04/11 08:11:30;;;;;;;4.5;4.1;;;;;;;30.11;17.87598;1003.813;;;;
2019/04/11 08:24:10;;;;;;;5.2;4.1;;;;;;;31.42;16.43555;1003.826;;;;
2019/04/11 08:29:16;;;;;;;5.3;4.2;;;;;;;31.65;16.16699;1003.852;;;;
2019/04/11 08:34:13;;;;;;;5.1;4.4;;;;;;;32.27;15.76758;1003.828;;;;
2019/04/11 08:39:17;;;;;;;4.5;4.1;;;;;;;32.36;15.38477;1003.845;;;;
2019/04/11 08:42:01;;;;;;;4.9;4.4;;;;;;;32.47;15.1709;1003.828;;;;
2019/04/11 08:44:22;;;;;;;5.9;4.3;;;;;;;32.82;14.89355;1003.893;;;;
2019/04/11 08:46:37;;;;;;;4.6;4.2;;;;;;;32.9;14.9082;1003.858;;;;
2019/04/11 08:49:04;;;;;;;5.5;4.3;;;;;;;33.28;14.57031;1003.854;;;;
2019/04/11 08:51:33;;;;;;;4.4;4;;;;;;;33.4;14.46484;1003.823;;;;
2019/04/11 08:54:38;;;;;;;5.6;4.4;;;;;;;33.28;14.40137;1003.803;;;;
2019/04/11 08:56:42;;;;;;;4.9;4;;;;;;;33.3;14.24414;1003.817;;;;
2019/04/11 08:59:38;;;;;;;4.7;4.2;;;;;;;33.29;14.38965;1003.797;;;;
2019/04/11 09:01:50;;;;;;;5.3;4.8;;;;;;;31.98;15.43164;1003.784;;;;
2019/04/11 09:06:53;;;;;;;5.8;4.7;;;;;;;28.08;19.07324;1003.729;;;;
2019/04/11 09:11:59;;;;;;;6;4.8;;;;;;;27.52;19.94434;1003.661;;;;
2019/04/11 09:17:07;;;;;;;5.9;4.7;;;;;;;27.07;20.29395;1003.713;;;;
2019/04/11 09:22:52;;;;;;;5.6;4.8;;;;;;;26.85;20.55859;1003.717;;;;
2019/04/11 09:24:47;;;;;;;5.3;4.8;;;;;;;26.69;20.62207;1003.731;;;;
2019/04/11 09:29:38;;;;;;;7.1;5.1;;;;;;;26.46;20.77832;1003.712;;;;
2019/04/11 09:32:44;;;;;;;5.5;4.5;;;;;;;26.43;21.00293;1003.715;;;;
2019/04/11 09:34:42;;;;;;;5.9;5;;;;;;;26.32;21.00977;1003.748;;;;
2019/04/11 09:37:20;;;;;;;6.9;4.9;;;;;;;26.24;21.18457;1003.816;;;;
2019/04/11 09:45:03;;;;;;;5.6;4.8;;;;;;;26.07;21.72363;1003.736;;;;
2019/04/11 09:47:47;;;;;;;5.6;4.4;;;;;;;25.98;21.84961;1003.797;;;;
2019/04/11 09:49:48;;;;;;;5.2;4.6;;;;;;;25.91;21.89453;1003.738;;;;
2019/04/11 09:52:29;;;;;;;5.2;4.7;;;;;;;25.88;22.1416;1003.729;;;;
2019/04/11 09:57:32;;;;;;;5.1;4.6;;;;;;;25.74;22.09961;1003.821;;;;
2019/04/11 10:04:47;;;;;;;5.1;4.7;;;;;;;25.55;22.24414;1003.772;;;;
2019/04/11 10:14:48;;;;;;;5.2;4.5;;;;;;;25.38;22.6875;1003.755;;;;
2019/04/11 10:17:41;;;;;;;5.9;4.8;;;;;;;25.32;22.75488;1003.774;;;;
2019/04/11 10:20:02;;;;;;;5.7;4.5;;;;;;;25.26;22.39648;1003.826;;;;
2019/04/11 10:27:30;;;;;;;5.9;4.8;;;;;;;25.21;22.7373;1003.889;;;;
2019/04/11 10:32:37;;;;;;;5.6;5.1;;;;;;;25.06;22.83691;1003.862;;;;
2019/04/11 10:37:37;;;;;;;5.5;4.6;;;;;;;24.97;23.01074;1003.776;;;;
2019/04/11 10:42:35;;;;;;;5;4.3;;;;;;;24.89;22.98242;1003.779;;;;
2019/04/11 10:45:23;;;;;;;5;4.5;;;;;;;24.86;22.98145;1003.781;;;;
2019/04/11 10:47:36;;;;;;;6.1;4.9;;;;;;;24.81;22.94238;1003.751;;;;
2019/04/11 10:52:45;;;;;;;5.1;4.4;;;;;;;24.78;23.0127;1003.793;;;;
2019/04/11 10:55:16;;;;;;;5.1;4.3;;;;;;;24.78;22.97754;1003.776;;;;
2019/04/11 10:57:57;;;;;;;6.3;5.2;;;;;;;24.81;22.74121;1003.765;;;;
2019/04/11 11:00:32;;;;;;;5.5;4.5;;;;;;;24.82;22.65918;1003.832;;;;
2019/04/11 11:03:04;;;;;;;5.4;4.9;;;;;;;24.74;23.01074;1003.785;;;;
2019/04/11 11:05:19;;;;;;;5;4.3;;;;;;;24.68;23.03125;1003.816;;;;
2019/04/11 11:07:48;;;;;;;6.6;4.6;;;;;;;24.61;23.12207;1003.823;;;;
2019/04/11 11:10:25;;;;;;;5.2;4.4;;;;;;;24.57;23.09668;1003.776;;;;
2019/04/11 11:13:51;;;;;;;5.4;4.4;;;;;;;24.53;23.1416;1003.839;;;;
2019/04/11 11:15:27;;;;;;;6.2;4.6;;;;;;;24.51;23.02246;1003.812;;;;
2019/04/11 11:20:34;;;;;;;5.3;4.7;;;;;;;24.43;22.66211;1003.792;;;;
2019/04/11 11:25:48;;;;;;;5;4.5;;;;;;;24.38;22.42285;1003.853;;;;
2019/04/11 11:28:01;;;;;;;5.4;4.9;;;;;;;24.35;22.3623;1003.869;;;;
2019/04/11 11:31:53;;;;;;;5.5;4.9;;;;;;;24.33;22.44434;1003.96;;;;
2019/04/11 11:33:07;;;;;;;4.4;4;;;;;;;24.37;22.82617;1003.941;;;;
2019/04/11 11:35:49;;;;;;;6.1;4.5;;;;;;;24.34;22.62305;1003.943;;;;
2019/04/11 11:38:12;;;;;;;5.5;4.7;;;;;;;24.32;22.75195;1003.966;;;;
2019/04/11 11:45:50;;;;;;;5.8;4.3;;;;;;;24.3;22.77441;1003.981;;;;
2019/04/11 11:49:31;;;;;;;5.1;4.3;;;;;;;24.28;22.80859;1003.929;;;;
2019/04/11 11:50:38;;;;;;;4.9;4.4;;;;;;;24.29;22.66699;1003.927;;;;
2019/04/11 11:53:22;;;;;;;5.1;4.6;;;;;;;24.26;22.78418;1003.971;;;;
2019/04/11 11:55:45;;;;;;;4.8;4.3;;;;;;;24.26;22.92578;1003.961;;;;
2019/04/11 11:58:28;;;;;;;4.8;4.3;;;;;;;24.24;22.99609;1003.884;;;;
2019/04/11 12:00:39;;;;;;;5.2;4.4;;;;;;;24.22;22.86523;1003.9;;;;
2019/04/11 12:05:45;;;;;;;5.7;4.3;;;;;;;24.18;22.81543;1003.867;;;;
2019/04/11 12:08:12;;;;;;;5.9;4.6;;;;;;;24.17;22.80371;1003.853;;;;
2019/04/11 12:11:06;;;;;;;4.5;4.1;;;;;;;24.14;22.93262;1003.803;;;;
2019/04/11 12:20:41;;;;;;;7.3;4.5;;;;;;;24.28;23.75684;1003.864;;;;
2019/04/11 12:23:10;;;;;;;4.9;4.4;;;;;;;24.23;23.68262;1003.895;;;;
2019/04/11 12:25:39;;;;;;;4.7;4.2;;;;;;;24.2;23.81152;1003.882;;;;
2019/04/11 12:29:53;;;;;;;5;4.5;;;;;;;24.18;23.69238;1003.758;;;;
2019/04/11 12:30:39;;;;;;;5;4.2;;;;;;;24.23;24.16797;1003.826;;;;
2019/04/11 12:43:09;;;;;;;4.5;3.9;;;;;;;24.2;24.43848;1003.696;;;;
2019/04/11 12:48:12;;;;;;;5.7;4.3;;;;;;;24.11;24.20996;1003.782;;;;
2019/04/11 12:53:15;;;;;;;5.2;4;;;;;;;24.12;24.15039;1003.78;;;;
2019/04/11 12:58:21;;;;;;;5.1;4.2;;;;;;;24.1;24.25586;1003.703;;;;
2019/04/11 13:05:35;;;;;;;5.3;4.1;;;;;;;24.08;24.27832;1003.67;;;;
2019/04/11 13:10:38;;;;;;;4.9;4;;;;;;;24.06;24.25391;1003.674;;;;
2019/04/11 13:15:54;;;;;;;5.3;4;;;;;;;24.02;24.25098;1003.574;;;;
2019/04/11 13:21:12;;;;;;;4.3;3.8;;;;;;;24.03;24.28711;1003.494;;;;
2019/04/11 13:26:12;;;;;;;4.5;4;;;;;;;24.01;24.36914;1003.585;;;;
2019/04/11 13:28:25;;;;;;;5;3.8;;;;;;;24.01;24.36914;1003.563;;;;
2019/04/11 13:33:26;;;;;;;4.7;4;;;;;;;23.97;24.47363;1003.52;;;;
2019/04/11 13:37:13;;;;;;;4.8;4.2;;;;;;;23.98;24.5459;1003.586;;;;
2019/04/11 13:38:22;;;;;;;4.3;3.7;;;;;;;23.98;24.60449;1003.476;;;;
2019/04/11 13:43:33;;;;;;;4.6;3.8;;;;;;;23.97;24.6748;1003.475;;;;
2019/04/11 13:50:51;;;;;;;4.9;3.7;;;;;;;23.97;24.54492;1003.489;;;;
2019/04/11 13:56:08;;;;;;;4.4;4;;;;;;;23.97;24.41406;1003.52;;;;
2019/04/11 14:01:00;;;;;;;4.6;3.9;;;;;;;23.96;24.5918;1003.482;;;;
2019/04/11 14:05:56;;;;;;;4.3;3.9;;;;;;;23.94;24.66113;1003.435;;;;
2019/04/11 14:08:27;;;;;;;3.9;3.5;;;;;;;23.91;24.64844;1003.31;;;;
2019/04/11 14:11:05;;;;;;;4.6;3.7;;;;;;;23.9;24.71875;1003.343;;;;
2019/04/11 14:13:32;;;;;;;4.6;3.7;;;;;;;23.91;24.8252;1003.382;;;;
2019/04/11 14:15:52;;;;;;;4;3.7;;;;;;;23.91;24.87207;1003.319;;;;
2019/04/11 14:18:38;;;;;;;4.6;3.6;;;;;;;23.88;24.91895;1003.406;;;;
2019/04/11 14:21:10;;;;;;;4.6;3.7;;;;;;;23.88;25.02441;1003.381;;;;
2019/04/11 14:24:01;;;;;;;4.8;3.8;;;;;;;23.9;25.06152;1003.311;;;;
2019/04/11 14:26:28;;;;;;;3.7;3.3;;;;;;;23.88;25.03711;1003.43;;;;
2019/04/11 14:28:48;;;;;;;4.3;3.5;;;;;;;23.91;25.12109;1003.419;;;;
2019/04/11 14:31:21;;;;;;;4.5;3.4;;;;;;;23.87;25.22559;1003.459;;;;
2019/04/11 14:33:41;;;;;;;4.5;3.7;;;;;;;23.87;25.36719;1003.337;;;;
2019/04/11 14:38:41;;;;;;;4.2;3.7;;;;;;;23.9;25.59375;1003.448;;;;
2019/04/11 14:41:29;;;;;;;4.8;3.4;;;;;;;23.89;25.67578;1003.364;;;;
2019/04/11 14:43:47;;;;;;;6;3.6;;;;;;;23.88;25.91309;1003.393;;;;
2019/04/11 14:48:50;;;;;;;3.6;3.3;;;;;;;23.9;26.25684;1003.421;;;;
2019/04/11 14:55:34;;;;;;;4.2;3.4;;;;;;;23.87;26.46777;1003.455;;;;
2019/04/11 14:56:19;;;;;;;4.9;3.5;;;;;;;23.87;26.53906;1003.459;;;;
2019/04/11 15:01:25;;;;;;;6.2;3.3;;;;;;;23.88;26.78809;1003.371;;;;
2019/04/11 15:04:33;;;;;;;5.7;3.4;;;;;;;23.88;26.90625;1003.408;;;;
2019/04/11 15:06:27;;;;;;;7.1;3.5;;;;;;;23.9;26.78906;1003.335;;;;
2019/04/11 15:09:23;;;;;;;6.7;3.7;;;;;;;23.94;26.76758;1003.491;;;;
2019/04/11 15:11:41;;;;;;;5.7;3.5;;;;;;;23.94;26.89844;1003.386;;;;
2019/04/11 15:14:04;;;;;;;6.9;3.3;;;;;;;23.94;27.13477;1003.335;;;;
2019/04/11 15:19:03;;;;;;;7.1;3.2;;;;;;;23.95;27.39453;1003.411;;;;
2019/04/11 15:21:52;;;;;;;6.4;3.3;;;;;;;23.91;27.21484;1003.36;;;;
2019/04/11 15:24:07;;;;;;;5.5;3.5;;;;;;;23.87;27.08301;1003.441;;;;
2019/04/11 15:29:25;;;;;;;5.3;3.6;;;;;;;23.84;26.78516;1003.42;;;;
2019/04/11 15:36:38;;;;;;;4.4;3.1;;;;;;;23.82;26.39355;1003.388;;;;
2019/04/11 15:41:41;;;;;;;3.8;3.5;;;;;;;23.81;26.2627;1003.509;;;;
2019/04/11 15:46:37;;;;;;;4.9;3.4;;;;;;;23.79;26.13184;1003.422;;;;
2019/04/11 15:49:27;;;;;;;4.1;3.2;;;;;;;23.79;26.06055;1003.48;;;;
2019/04/11 15:51:43;;;;;;;3.8;3.2;;;;;;;23.79;26.02441;1003.468;;;;
2019/04/11 15:56:51;;;;;;;4.1;3.4;;;;;;;23.78;25.92969;1003.507;;;;
2019/04/11 16:02:11;;;;;;;4.1;3.3;;;;;;;23.78;25.84766;1003.466;;;;
2019/04/11 16:04:34;;;;;;;4.9;3.2;;;;;;;23.77;25.8584;1003.481;;;;
2019/04/11 16:07:05;;;;;;;4.1;3.2;;;;;;;23.76;25.94043;1003.524;;;;
2019/04/11 16:09:21;;;;;;;4.5;3;;;;;;;23.77;25.92969;1003.563;;;;
2019/04/11 16:12:05;;;;;;;3.6;3.2;;;;;;;23.76;25.92871;1003.557;;;;
2019/04/11 16:14:25;;;;;;;4.5;2.9;;;;;;;23.74;26.01074;1003.454;;;;
2019/04/11 16:24:31;;;;;;;3.5;3.2;;;;;;;23.73;26.24707;1003.466;;;;
2019/04/11 16:27:10;;;;;;;4.2;3.2;;;;;;;23.72;26.26953;1003.5;;;;
2019/04/11 16:29:28;;;;;;;6.2;3;;;;;;;23.72;26.28125;1003.496;;;;
2019/04/11 16:31:56;;;;;;;4.7;3.2;;;;;;;23.72;26.28125;1003.4;;;;
2019/04/11 16:34:51;;;;;;;4.3;3.4;;;;;;;23.72;26.28125;1003.469;;;;
2019/04/11 16:36:57;;;;;;;3.6;3.3;;;;;;;23.72;26.34082;1003.524;;;;
2019/04/11 16:42:02;;;;;;;4.4;3.2;;;;;;;23.71;26.30469;1003.475;;;;
2019/04/11 16:49:29;;;;;;;4.2;3.1;;;;;;;23.73;26.16309;1003.59;;;;
2019/04/11 16:51:58;;;;;;;4.1;3.4;;;;;;;23.71;26.19824;1003.549;;;;
2019/04/11 16:54:29;;;;;;;3.7;2.8;;;;;;;23.7;26.23242;1003.56;;;;
2019/04/11 16:57:00;;;;;;;5.7;3.3;;;;;;;23.69;26.29102;1003.589;;;;
2019/04/11 16:59:30;;;;;;;3.7;3;;;;;;;23.67;26.34961;1003.597;;;;
2019/04/11 17:02:01;;;;;;;4.4;3.2;;;;;;;23.68;26.3623;1003.645;;;;
2019/04/11 17:04:32;;;;;;;4.2;3.3;;;;;;;23.67;26.36133;1003.602;;;;
2019/04/11 17:07:23;;;;;;;4.4;3.4;;;;;;;23.7;26.30371;1003.642;;;;
2019/04/11 17:09:32;;;;;;;3.5;3.2;;;;;;;23.72;26.28125;1003.629;;;;
2019/04/11 17:11:58;;;;;;;3.5;3;;;;;;;23.68;26.25586;1003.686;;;;
2019/04/11 17:14:28;;;;;;;5;3.3;;;;;;;23.67;26.2666;1003.666;;;;
2019/04/11 17:16:59;;;;;;;4.4;3.3;;;;;;;23.65;26.24219;1003.743;;;;
2019/04/11 17:19:29;;;;;;;3.8;3.1;;;;;;;23.65;26.21875;1003.661;;;;
2019/04/11 17:22:00;;;;;;;3.9;3.4;;;;;;;23.66;26.16016;1003.746;;;;
2019/04/11 17:24:31;;;;;;;4;3;;;;;;;23.66;26.17188;1003.777;;;;
2019/04/11 17:27:02;;;;;;;3.7;3;;;;;;;23.64;26.24121;1003.759;;;;
2019/04/11 17:29:32;;;;;;;3.8;2.9;;;;;;;23.62;26.24023;1003.75;;;;
2019/04/11 17:32:03;;;;;;;3.9;3.5;;;;;;;23.61;26.18066;1003.833;;;;
2019/04/11 17:34:33;;;;;;;4.3;3.3;;;;;;;23.62;26.14551;1003.914;;;;
2019/04/11 17:37:04;;;;;;;4;3.5;;;;;;;23.6;26.08496;1003.868;;;;
2019/04/11 17:39:35;;;;;;;3.8;3.5;;;;;;;23.58;25.93066;1003.891;;;;
2019/04/11 17:42:06;;;;;;;5.5;3.7;;;;;;;23.58;26.0127;1003.869;;;;
2019/04/11 17:44:36;;;;;;;4.8;3.3;;;;;;;23.58;25.97754;1003.945;;;;
2019/04/11 17:47:08;;;;;;;4.2;3.5;;;;;;;23.57;25.90625;1003.947;;;;
2019/04/11 17:49:38;;;;;;;4.3;3.3;;;;;;;23.55;25.95215;1003.971;;;;
2019/04/11 17:52:09;;;;;;;4;3.3;;;;;;;23.53;25.98633;1004.021;;;;
2019/04/11 17:54:40;;;;;;;3.6;3.3;;;;;;;23.53;25.96289;1004.035;;;;
2019/04/11 17:57:10;;;;;;;4;3.3;;;;;;;23.54;25.92773;1003.982;;;;
2019/04/11 17:59:42;;;;;;;5;3.6;;;;;;;23.52;25.95117;1004.095;;;;
2019/04/11 18:02:11;;;;;;;4.7;3.5;;;;;;;23.52;25.96289;1004.081;;;;
2019/04/11 18:04:42;;;;;;;4.6;3.5;;;;;;;23.53;25.92676;1004.103;;;;
2019/04/11 18:07:13;;;;;;;3.8;3.4;;;;;;;23.5;25.90234;1004.145;;;;
2019/04/11 18:09:43;;;;;;;3.9;3.5;;;;;;;23.5;25.89063;1004.21;;;;
2019/04/11 18:12:14;;;;;;;4.9;3.6;;;;;;;23.48;25.87695;1004.185;;;;
2019/04/11 18:14:45;;;;;;;4.3;3.3;;;;;;;23.46;25.8877;1004.176;;;;
2019/04/11 18:17:16;;;;;;;3.8;3.2;;;;;;;23.45;25.85156;1004.26;;;;
2019/04/11 18:19:47;;;;;;;4;3.6;;;;;;;23.45;25.83984;1004.233;;;;
2019/04/11 18:22:17;;;;;;;4.2;3.6;;;;;;;23.44;25.85156;1004.326;;;;